ADDS METAR Data INFO
IDs: Format: Raw Decoded Include TAF

Data at: 2209 UTC 24 Jun 2018

KPCW 242155Z AUTO 35010KT 10SM SCT017 23/18 A2997 RMK AO2
KPCW 242135Z AUTO 35009KT 10SM CLR 23/18 A2996 RMK AO2
KPCW 242115Z AUTO 35011G16KT 10SM FEW060 23/18 A2996 RMK AO2
KPCW 242055Z AUTO 36008G15KT 10SM SCT060 23/19 A2995 RMK AO2
KPCW 242035Z AUTO 35010KT 10SM FEW050 SCT060 BKN070 23/18 A2995 RMK AO2
KPCW 242015Z AUTO 33011KT 10SM FEW041 BKN050 OVC070 23/18 A2994 RMK AO2
KPCW 241955Z AUTO 33008G16KT 10SM SCT040 BKN047 23/19 A2993 RMK AO2
KPCW 241935Z AUTO 33013KT 10SM CLR 23/19 A2993 RMK AO2
KPCW 241915Z AUTO 33010G15KT 10SM FEW046 FEW060 24/19 A2992 RMK AO2
KPCW 241855Z AUTO 33010G15KT 10SM FEW047 BKN060 24/18 A2991 RMK AO2
KPCW 241835Z AUTO 33010KT 10SM FEW036 BKN047 OVC060 23/18 A2990 RMK AO2
KPCW 241815Z AUTO 32008KT 10SM BKN040 BKN046 OVC050 23/17 A2990 RMK AO2
KPCW 241755Z AUTO 30008KT 10SM FEW026 OVC038 23/18 A2990 RMK AO2
KPCW 241735Z AUTO 31008G13KT 10SM SCT027 OVC035 23/18 A2988 RMK AO2
KPCW 241715Z AUTO 30010KT 10SM OVC032 23/17 A2988 RMK AO2
KPCW 241655Z AUTO 28013KT 10SM OVC034 23/17 A2989 RMK AO2
KPCW 241635Z AUTO 30010KT 10SM OVC038 23/17 A2989 RMK AO2
KPCW 241615Z AUTO 30010KT 10SM OVC040 23/17 A2989 RMK AO2
KPCW 241555Z AUTO 29010G15KT 10SM SCT040 BKN046 OVC065 23/18 A2988 RMK AO2
KPCW 241535Z AUTO 27009KT 10SM FEW049 BKN065 BKN120 23/17 A2987 RMK AO2
KPCW 241515Z AUTO 29008KT 10SM SCT027 BKN032 BKN040 23/18 A2987 RMK AO2
KPCW 241455Z AUTO 29009KT 10SM BKN029 BKN037 OVC055 23/17 A2986 RMK AO2
KPCW 241435Z AUTO 27009KT 10SM FEW030 SCT038 BKN055 23/16 A2986 RMK AO2
KPCW 241415Z AUTO 25010KT 10SM FEW031 SCT038 SCT055 23/16 A2985 RMK AO2
KPCW 241355Z AUTO 26009KT 10SM CLR 23/15 A2984 RMK AO2
KPCW 241335Z AUTO 26009G15KT 10SM CLR 22/16 A2983 RMK AO2
KPCW 241315Z AUTO 25009G14KT 10SM BKN100 BKN120 21/17 A2983 RMK AO2
KPCW 241255Z AUTO 25007KT 10SM BKN100 OVC120 21/17 A2983 RMK AO2
KPCW 241235Z AUTO 25008G13KT 10SM OVC095 20/16 A2983 RMK AO2
KPCW 241215Z AUTO 26009KT 10SM OVC100 20/17 A2984 RMK AO2
KPCW 241155Z AUTO 26010KT 10SM OVC100 20/17 A2983 RMK AO2
KPCW 241135Z AUTO 27008KT 10SM OVC100 20/17 A2982 RMK AO2
KPCW 241115Z AUTO 26009KT 9SM OVC100 20/18 A2982 RMK AO2
KPCW 241055Z AUTO 27010KT 8SM FEW080 OVC100 20/18 A2982 RMK AO2
KPCW 241035Z AUTO 27008KT 7SM SCT060 BKN080 OVC100 20/18 A2982 RMK AO2
KPCW 241015Z AUTO 26008KT 8SM SCT028 OVC055 20/18 A2981 RMK AO2
KPCW 240955Z AUTO 26007KT 10SM 20/19 A2981 RMK AO2
KPCW 240935Z AUTO 26009KT 9SM 20/19 A2980 RMK AO2
KPCW 240915Z AUTO 25007G13KT 10SM 20/19 A2980 RMK AO2
KPCW 240855Z AUTO 25006KT 10SM 20/19 A2979 RMK AO2
KPCW 240835Z AUTO 23003KT 10SM 20/18 A2979 RMK AO2
KPCW 240815Z AUTO 24005KT 10SM 20/18 A2979 RMK AO2
KPCW 240755Z AUTO 25007KT 10SM 20/18 A2979 RMK AO2
KPCW 240735Z AUTO 27006KT 10SM 20/18 A2979 RMK AO2
KPCW 240715Z AUTO 24005KT 10SM SCT049 OVC075 20/18 A2978 RMK AO2
KPCW 240655Z AUTO 25006KT 10SM OVC080 20/18 A2979 RMK AO2
KPCW 240635Z AUTO 25008KT 10SM 20/18 A2979 RMK AO2
KPCW 240615Z AUTO 26006KT 10SM 21/18 A2978 RMK AO2
KPCW 240555Z AUTO 28007KT 10SM 21/18 A2978 RMK AO2
KPCW 240535Z AUTO 28006KT 10SM OVC080 20/18 A2978 RMK AO2
KPCW 240515Z AUTO 28006KT 10SM 20/18 A2978 RMK AO2
KPCW 240455Z AUTO 26005KT 10SM 20/18 A2978 RMK AO2
KPCW 240435Z AUTO 24005KT 10SM 20/18 A2978 RMK AO2
KPCW 240415Z AUTO 26006KT 10SM 20/18 A2978 RMK AO2
KPCW 240355Z AUTO 27006KT 10SM 21/18 A2977 RMK AO2
KPCW 240335Z AUTO 28007KT 10SM 21/18 A2978 RMK AO2
KPCW 240315Z AUTO 27007KT 10SM 21/19 A2978 RMK AO2
KPCW 240255Z AUTO 27007KT 10SM 22/19 A2977 RMK AO2
KPCW 240235Z AUTO 27005KT 10SM OVC085 22/19 A2977 RMK AO2
KPCW 240215Z AUTO 27005KT 10SM 22/19 A2977 RMK AO2
KPCW 240155Z AUTO 26007KT 10SM 22/18 A2976 RMK AO2
KPCW 240135Z AUTO 26008KT 10SM SCT060 BKN080 22/18 A2975 RMK AO2
KPCW 240115Z AUTO 27008KT 10SM SCT060 23/18 A2974 RMK AO2
KPCW 240055Z AUTO 26007KT 10SM SCT060 23/19 A2974 RMK AO2
KPCW 240035Z AUTO 27007KT 10SM OVC060 24/19 A2973 RMK AO2
KPCW 240015Z AUTO 26009G16KT 10SM BKN060 BKN075 24/19 A2973 RMK AO2
KPCW 232355Z AUTO 25011KT 10SM FEW075 24/19 A2973 RMK AO2
KPCW 232335Z AUTO 26009G14KT 10SM FEW060 FEW070 24/19 A2973 RMK AO2
KPCW 232315Z AUTO 26010KT 10SM SCT055 BKN070 24/20 A2972 RMK AO2
KPCW 232255Z AUTO 26010G16KT 10SM FEW048 BKN055 24/20 A2972 RMK AO2
KPCW 232235Z AUTO 26009G14KT 10SM BKN049 BKN055 24/20 A2972 RMK AO2
KPCW 232215Z AUTO 30006KT 10SM FEW070 FEW080 SCT110 24/20 A2971 RMK AO2
KPCW 232155Z AUTO 31004KT 10SM BKN070 BKN080 BKN110 24/21 A2971 RMK AO2
KPCW 232135Z AUTO 30004KT 10SM BKN065 OVC080 23/20 A2971 RMK AO2
KPCW 232115Z AUTO 26006KT 10SM FEW042 BKN060 OVC080 22/20 A2972 RMK AO2
KPCW 232055Z AUTO 23004KT 9SM FEW003 SCT018 BKN029 22/20 A2972 RMK AO2
KPCW 232035Z AUTO 29011KT 3SM RA FEW018 BKN027 OVC085 23/20 A2972 RMK AO2
KPCW 232015Z AUTO 33006KT 10SM FEW024 SCT030 OVC085 24/21 A2970 RMK AO2
KPCW 231955Z AUTO 30005KT 10SM BKN080 24/21 A2969 RMK AO2
KPCW 231935Z AUTO 31004KT 10SM BKN080 23/21 A2969 RMK AO2
KPCW 231915Z AUTO 32004KT 10SM SCT070 BKN080 23/20 A2969 RMK AO2
KPCW 231855Z AUTO 29004KT 7SM FEW028 SCT039 BKN055 22/20 A2969 RMK AO2
KPCW 231835Z AUTO 35008G13KT 3SM -RA FEW005 BKN025 OVC038 20/19 A2970 RMK AO2
KPCW 231815Z AUTO 29010G16KT 10SM BKN023 BKN028 OVC039 23/19 A2969 RMK AO2
KPCW 231755Z AUTO 24011KT 10SM BKN019 BKN026 BKN032 24/20 A2969 RMK AO2
KPCW 231735Z AUTO 23009KT 10SM BKN015 BKN020 24/21 A2968 RMK AO2
KPCW 231715Z AUTO 25009G14KT 10SM BKN013 BKN019 23/21 A2968 RMK AO2
KPCW 231655Z AUTO 25009KT 10SM BKN009 BKN012 BKN050 22/20 A2969 RMK AO2
KPCW 231635Z AUTO 23009KT 9SM FEW009 SCT012 SCT025 21/20 A2970 RMK AO2
KPCW 231615Z AUTO 25008KT 4SM -RA FEW004 SCT025 BKN055 20/20 A2970 RMK AO2
KPCW 231555Z AUTO 26011G16KT 3/4SM +RA BKN004 OVC017 20/19 A2970 RMK AO2
KPCW 231535Z AUTO 24012G18KT 9SM BKN020 BKN025 OVC037 22/19 A2969 RMK AO2
KPCW 231515Z AUTO 24012KT 10SM SCT019 BKN026 BKN036 23/19 A2969 RMK AO2
KPCW 231455Z AUTO 25013KT 10SM BKN015 BKN020 BKN032 22/19 A2968 RMK AO2
KPCW 231435Z AUTO 22007KT 9SM BKN016 BKN024 BKN046 21/19 A2968 RMK AO2
KPCW 231415Z AUTO 23012G18KT 9SM FEW016 SCT020 BKN026 23/19 A2967 RMK AO2
KPCW 231355Z AUTO 23012KT 10SM SCT016 BKN027 23/19 A2968 RMK AO2
KPCW 231335Z AUTO 22009KT 10SM SCT016 BKN024 BKN060 21/19 A2968 RMK AO2
KPCW 231315Z AUTO 23009KT 10SM SCT015 BKN021 OVC027 22/19 A2968 RMK AO2
KPCW 231255Z AUTO 22009G14KT 10SM BKN015 OVC020 22/19 A2968 RMK AO2
KPCW 231235Z AUTO 20007KT 8SM BKN015 BKN020 BKN024 21/20 A2967 RMK AO2
KPCW 231215Z AUTO 22006KT 9SM BKN015 BKN038 OVC070 21/19 A2968 RMK AO2
KPCW 231155Z AUTO 21005KT 10SM SCT014 SCT026 BKN049 21/19 A2968 RMK AO2
KPCW 231135Z AUTO 20006KT 10SM BKN024 BKN037 OVC048 20/19 A2968 RMK AO2
KPCW 231115Z AUTO 19007KT 10SM SCT024 BKN037 BKN042 20/19 A2968 RMK AO2
KPCW 231055Z AUTO 18006KT 10SM FEW120 20/19 A2967 RMK AO2
KPCW 231035Z AUTO 17006KT 10SM FEW045 FEW120 20/19 A2967 RMK AO2
KPCW 231015Z AUTO 15005KT 10SM FEW100 SCT120 20/19 A2967 RMK AO2